Washingtonville, New York
Current Conditions -  °F | °C
As of 3:45 AM on Thursday 23 Oct 2014 (Local Time) from KSWF Reporting Station
Overcast Overcast  
Wind Chill: 50°   Ceiling: 1300
Heat Index: 50°   Visibility: 10mi
Dew Point: 48°   Wind: 18mph
Humidity: 94%   Direction: 10°N
Pressure: 29.77"   Gusts: 26mph
Location:  41.43°N, 74.17°W
Report Text: KSWF 230745Z 01016G23KT 10SM OVC013 10/09 A2977
Loading
Personal Weather Stations






























Interactive Weather Map
Tropical Storm Tracking
New forecast layout! Learn more

10-Day Weather Forecast

Advertisements
Track Severe Weather on mobile